Time;durP1;ratioP1;P1;durP2;ratioP2;P2;SDS_P1;SDS_P2;PMS_P1;PMS_P2;Temp;Humidity;BMP_temperature;BMP_pressure;BME280_temperature;BME280_humidity;BME280_pressure;Samples;Min_cycle;Max_cycle;Signal;HPM_P1;HPM_P2
2024/04/14 00:00:42;;;;;;;;;1.00;1.00;;;;;25.63;41.62;102285.13;5184633;27;44280;-77
2024/04/14 00:03:08;;;;;;;;;2.00;2.00;;;;;25.51;41.19;102263.31;5182472;27;44977;-75
2024/04/14 00:05:33;;;;;;;;;2.50;2.50;;;;;25.62;42.43;102286.97;5184035;27;44865;-75
2024/04/14 00:07:59;;;;;;;;;1.33;1.33;;;;;25.61;42.09;102279.13;5184061;27;44025;-75
2024/04/14 00:10:24;;;;;;;;;1.67;1.67;;;;;25.63;40.96;102283.28;5183862;27;43898;-76
2024/04/14 00:12:49;;;;;;;;;2.00;2.00;;;;;25.34;41.35;102250.03;5184206;27;43834;-75
2024/04/14 00:15:15;;;;;;;;;3.00;3.00;;;;;25.63;41.79;102290.47;5183787;27;45583;-75
2024/04/14 00:17:40;;;;;;;;;1.00;1.00;;;;;25.62;41.34;102291.44;5183753;27;44314;-75
2024/04/14 00:20:06;;;;;;;;;3.00;3.00;;;;;25.61;42.16;102287.94;5184343;27;44000;-75
2024/04/14 00:22:32;;;;;;;;;1.33;1.33;;;;;25.61;42.42;102290.59;5183974;27;43963;-75
2024/04/14 00:24:57;;;;;;;;;1.00;1.00;;;;;25.63;41.49;102303.78;5183328;27;44681;-75
2024/04/14 00:27:22;;;;;;;;;2.33;1.33;;;;;25.46;41.62;102279.81;5183798;27;43900;-75
2024/04/14 00:29:47;;;;;;;;;2.00;2.00;;;;;25.59;41.92;102305.09;5183753;27;43816;-75
2024/04/14 00:32:14;;;;;;;;;2.67;1.00;;;;;25.58;42.06;102298.94;5183821;27;44140;-74
2024/04/14 00:34:39;;;;;;;;;1.67;1.67;;;;;25.60;41.14;102304.13;5183550;27;45720;-75
2024/04/14 00:37:05;;;;;;;;;1.33;1.33;;;;;25.56;42.05;102286.78;5183514;27;43838;-75
2024/04/14 00:39:31;;;;;;;;;2.00;2.00;;;;;25.60;41.16;102294.28;5183215;27;43999;-75
2024/04/14 00:41:58;;;;;;;;;3.67;1.00;;;;;25.57;41.04;102296.44;5183616;27;43845;-74
2024/04/14 00:44:23;;;;;;;;;2.00;2.00;;;;;25.52;41.44;102295.13;5183450;27;44799;-75
2024/04/14 00:46:51;;;;;;;;;1.67;1.33;;;;;25.60;40.98;102298.78;5183350;27;43977;-75
2024/04/14 00:49:17;;;;;;;;;0.33;0.33;;;;;25.48;41.23;102282.28;5183477;27;43694;-75
2024/04/14 00:51:42;;;;;;;;;4.00;2.00;;;;;25.59;41.08;102303.28;5183849;27;44039;-74
2024/04/14 00:54:08;;;;;;;;;2.33;2.00;;;;;25.58;40.98;102300.78;5185643;27;43884;-75
2024/04/14 00:56:34;;;;;;;;;2.00;2.00;;;;;25.56;41.17;102308.94;5184226;27;43924;-75
2024/04/14 00:59:00;;;;;;;;;3.00;2.00;;;;;25.59;41.33;102305.94;5186199;27;43991;-75
2024/04/14 01:01:25;;;;;;;;;2.00;2.00;;;;;25.57;41.27;102294.63;5186032;27;44082;-75
2024/04/14 01:03:51;;;;;;;;;1.33;0.67;;;;;25.32;41.80;102259.19;5185808;27;44955;-74
2024/04/14 01:06:16;;;;;;;;;2.00;2.00;;;;;25.56;42.04;102308.09;5186046;27;43863;-75
2024/04/14 01:08:42;;;;;;;;;1.33;1.33;;;;;25.42;41.15;102273.16;5185547;27;43907;-75
2024/04/14 01:11:08;;;;;;;;;1.33;1.33;;;;;25.55;41.59;102307.28;5186034;27;43908;-74
2024/04/14 01:13:33;;;;;;;;;1.00;1.00;;;;;25.49;41.05;102297.28;5185754;27;45618;-75
2024/04/14 01:15:58;;;;;;;;;1.00;1.00;;;;;25.57;41.31;102310.63;5185700;27;43950;-75
2024/04/14 01:18:24;;;;;;;;;1.00;1.00;;;;;25.56;42.10;102308.09;5186136;27;44032;-75
2024/04/14 01:20:49;;;;;;;;;2.00;2.00;;;;;25.56;41.15;102297.44;5186005;27;44003;-75
2024/04/14 01:23:14;;;;;;;;;2.00;2.00;;;;;25.56;41.73;102305.44;5185342;27;43967;-75
2024/04/14 01:25:40;;;;;;;;;4.00;2.33;;;;;25.55;41.60;102304.63;5185991;27;44142;-75
2024/04/14 01:28:05;;;;;;;;;2.00;2.00;;;;;25.52;42.18;102297.81;5185716;27;43970;-75
2024/04/14 01:30:30;;;;;;;;;2.33;2.33;;;;;25.45;42.17;102290.66;5185903;27;44073;-75
2024/04/14 01:32:56;;;;;;;;;2.00;2.00;;;;;25.55;41.57;102309.13;5183961;27;46047;-76
2024/04/14 01:35:22;;;;;;;;;3.00;3.00;;;;;25.53;41.94;102309.28;5185660;27;44011;-75
2024/04/14 01:37:47;;;;;;;;;1.33;1.33;;;;;25.54;42.06;102308.28;5185516;27;43980;-74
2024/04/14 01:40:12;;;;;;;;;2.33;2.33;;;;;25.50;41.93;102302.44;5185778;27;44027;-75
2024/04/14 01:42:38;;;;;;;;;4.00;1.00;;;;;25.54;41.14;102313.63;5185589;27;45815;-75
2024/04/14 01:45:03;;;;;;;;;1.67;1.33;;;;;25.52;41.53;102313.78;5185725;27;43845;-75
2024/04/14 01:47:29;;;;;;;;;1.00;1.00;;;;;25.43;41.27;102284.63;5185626;27;43824;-75
2024/04/14 01:49:54;;;;;;;;;1.33;1.00;;;;;25.50;41.74;102301.63;5185576;27;43748;-75
2024/04/14 01:52:19;;;;;;;;;3.00;3.00;;;;;25.52;42.10;102303.13;5185094;27;43922;-75
2024/04/14 01:54:45;;;;;;;;;2.00;2.00;;;;;25.50;42.22;102306.97;5185706;27;43897;-76
2024/04/14 01:57:10;;;;;;;;;2.67;2.67;;;;;25.40;40.94;102288.47;5185604;27;43894;-75
2024/04/14 01:59:37;;;;;;;;;1.67;1.67;;;;;25.52;41.70;102304.97;5185705;27;43948;-76
2024/04/14 02:02:02;;;;;;;;;0.33;0.33;;;;;25.52;41.45;102302.28;5185279;27;44154;-75
2024/04/14 02:04:27;;;;;;;;;0.00;0.00;;;;;25.52;42.17;102307.63;5183989;27;44056;-76
2024/04/14 02:06:53;;;;;;;;;2.33;2.33;;;;;25.49;41.59;102298.13;5184996;27;44011;-75
2024/04/14 02:09:18;;;;;;;;;1.00;1.00;;;;;25.52;41.80;102300.47;5185467;27;43886;-75
2024/04/14 02:11:43;;;;;;;;;2.00;2.00;;;;;25.52;41.29;102305.81;5185353;27;44735;-74
2024/04/14 02:14:08;;;;;;;;;2.00;2.00;;;;;25.46;41.83;102295.81;5185152;27;43826;-76
2024/04/14 02:16:34;;;;;;;;;3.67;2.67;;;;;25.46;41.43;102298.47;5185325;27;43983;-75
2024/04/14 02:18:59;;;;;;;;;3.33;1.67;;;;;25.45;41.38;102286.13;5185473;27;44085;-75
2024/04/14 02:21:25;;;;;;;;;2.00;2.00;;;;;25.51;41.36;102297.97;5185049;27;44711;-75
2024/04/14 02:23:50;;;;;;;;;2.00;2.00;;;;;25.51;42.22;102305.94;5185349;27;43957;-76
2024/04/14 02:26:16;;;;;;;;;2.00;2.00;;;;;25.47;42.28;102301.97;5185298;27;43889;-75
2024/04/14 02:28:41;;;;;;;;;3.00;3.00;;;;;25.46;41.56;102303.78;5185336;27;43927;-75
2024/04/14 02:31:07;;;;;;;;;3.00;3.00;;;;;25.50;41.40;102307.78;5185072;27;45712;-75
2024/04/14 02:33:32;;;;;;;;;0.67;0.67;;;;;25.50;42.29;102305.13;5185293;27;43801;-75
2024/04/14 02:35:59;;;;;;;;;1.00;1.00;;;;;25.45;41.83;102302.13;5183140;27;43905;-75
2024/04/14 02:38:25;;;;;;;;;2.00;2.00;;;;;25.50;41.53;102309.63;5185118;27;44167;-74
2024/04/14 02:40:57;;;;;;;;;2.00;2.00;;;;;25.39;41.13;102300.97;5185079;27;45793;-76
2024/04/14 02:43:23;;;;;;;;;2.67;1.67;;;;;25.49;41.47;102313.28;5185257;27;44110;-74
2024/04/14 02:45:48;;;;;;;;;3.00;2.00;;;;;25.46;41.18;102309.13;5185084;27;43823;-75
2024/04/14 02:48:13;;;;;;;;;2.00;2.00;;;;;25.48;41.64;102311.59;5185176;27;43889;-74
2024/04/14 02:50:39;;;;;;;;;2.00;1.00;;;;;25.40;41.17;102313.28;5184594;27;44656;-75
2024/04/14 02:53:04;;;;;;;;;1.67;1.67;;;;;25.36;41.56;102293.31;5185110;27;44234;-75
2024/04/14 02:55:30;;;;;;;;;1.00;1.00;;;;;25.48;41.28;102312.44;5185257;27;43899;-75
2024/04/14 02:57:55;;;;;;;;;3.67;2.00;;;;;25.49;42.06;102315.94;5185107;27;43984;-75
2024/04/14 03:00:21;;;;;;;;;2.67;2.67;;;;;25.39;41.42;102298.31;5184937;27;44781;-75
2024/04/14 03:02:46;;;;;;;;;2.67;1.00;;;;;25.38;41.73;102303.78;5184788;27;43912;-75
2024/04/14 03:05:11;;;;;;;;;1.67;1.67;;;;;25.46;41.48;102313.63;5184586;27;43904;-75
2024/04/14 03:07:37;;;;;;;;;3.00;3.00;;;;;25.48;42.13;102319.59;5184880;27;43932;-74
2024/04/14 03:10:02;;;;;;;;;1.00;1.00;;;;;25.48;41.24;102323.09;5184855;27;44366;-75
2024/04/14 03:12:28;;;;;;;;;2.00;2.00;;;;;25.46;41.58;102313.63;5184761;27;43975;-74
2024/04/14 03:14:53;;;;;;;;;1.67;1.67;;;;;25.39;41.28;102300.16;5184117;27;44815;-74
2024/04/14 03:17:20;;;;;;;;;1.00;1.00;;;;;25.47;41.29;102310.81;5184714;27;44604;-75
2024/04/14 03:19:50;;;;;;;;;2.00;2.00;;;;;25.48;41.65;102301.78;5184201;27;45032;-75
2024/04/14 03:22:16;;;;;;;;;1.33;1.33;;;;;25.41;42.12;102298.13;5184811;27;44049;-74
2024/04/14 03:24:41;;;;;;;;;1.00;1.00;;;;;25.45;41.54;102310.09;5184863;27;44292;-75
2024/04/14 03:27:06;;;;;;;;;1.00;1.00;;;;;25.47;42.23;102310.81;5184770;27;43932;-74
2024/04/14 03:29:31;;;;;;;;;3.00;3.00;;;;;25.48;42.31;102315.09;5184567;27;44031;-75
2024/04/14 03:31:57;;;;;;;;;1.00;1.00;;;;;25.44;41.41;102302.28;5184209;27;52602;-75
2024/04/14 03:34:22;;;;;;;;;1.67;1.67;;;;;25.47;41.49;102309.97;5184493;27;43972;-75
2024/04/14 03:36:47;;;;;;;;;3.00;3.00;;;;;25.45;42.25;102302.13;5184719;27;43964;-74
2024/04/14 03:39:13;;;;;;;;;1.67;1.67;;;;;25.46;41.79;102309.13;5184363;27;44772;-75
2024/04/14 03:41:38;;;;;;;;;2.00;2.00;;;;;25.46;41.56;102317.13;5184554;27;43902;-75
2024/04/14 03:44:04;;;;;;;;;2.00;1.00;;;;;25.48;41.86;102319.59;5184718;27;43971;-75
2024/04/14 03:46:29;;;;;;;;;1.00;1.00;;;;;25.45;41.98;102315.44;5184763;27;43934;-75
2024/04/14 03:48:54;;;;;;;;;1.33;1.33;;;;;25.38;42.03;102315.28;5183839;27;44827;-75
2024/04/14 03:51:20;;;;;;;;;1.67;1.67;;;;;25.40;41.21;102313.28;5184460;27;43971;-75
2024/04/14 03:53:45;;;;;;;;;3.00;2.00;;;;;25.47;41.91;102321.47;5182737;27;44002;-75
2024/04/14 03:56:10;;;;;;;;;1.00;1.00;;;;;25.45;42.57;102323.44;5184800;27;43882;-74
2024/04/14 03:58:36;;;;;;;;;2.00;2.00;;;;;25.45;42.00;102315.44;5184149;27;44763;-75
2024/04/14 04:01:01;;;;;;;;;2.67;2.67;;;;;25.46;42.46;102325.13;5184106;27;43820;-75
2024/04/14 04:03:27;;;;;;;;;2.00;2.00;;;;;25.45;41.36;102328.75;5184019;27;43833;-75
2024/04/14 04:05:54;;;;;;;;;2.00;2.00;;;;;25.37;41.62;102315.47;5184257;27;44000;-75
2024/04/14 04:08:20;;;;;;;;;1.00;1.00;;;;;25.40;41.77;102326.59;5184062;27;45883;-74
2024/04/14 04:10:46;;;;;;;;;0.33;0.33;;;;;25.45;41.75;102325.28;5184268;27;43960;-75
2024/04/14 04:13:11;;;;;;;;;1.67;1.67;;;;;25.45;42.01;102319.97;5184001;27;45603;-74
2024/04/14 04:15:36;;;;;;;;;1.00;1.00;;;;;25.40;41.30;102315.09;5183818;27;43909;-75
2024/04/14 04:18:01;;;;;;;;;0.00;0.00;;;;;25.44;41.72;102321.78;5183552;27;44705;-75
2024/04/14 04:20:27;;;;;;;;;0.33;0.33;;;;;25.37;41.26;102315.47;5184030;27;43949;-75
2024/04/14 04:22:52;;;;;;;;;1.00;1.00;;;;;25.43;42.15;102328.09;5184155;27;43796;-75
2024/04/14 04:25:18;;;;;;;;;1.00;1.00;;;;;25.45;42.09;102330.63;5209949;27;43946;-75
2024/04/14 04:27:43;;;;;;;;;2.00;0.67;;;;;25.39;42.56;102314.31;5185038;27;44806;-75
2024/04/14 04:30:08;;;;;;;;;0.67;0.67;;;;;25.37;42.28;102312.81;5186482;27;43897;-76
2024/04/14 04:32:34;;;;;;;;;1.67;1.67;;;;;25.43;41.81;102322.78;5186615;27;43908;-75
2024/04/14 04:34:59;;;;;;;;;2.00;2.00;;;;;25.43;41.90;102332.59;5186502;27;43935;-75
2024/04/14 04:37:24;;;;;;;;;1.00;1.00;;;;;25.43;42.03;102328.09;5186390;27;45844;-75
2024/04/14 04:39:50;;;;;;;;;1.33;1.33;;;;;25.39;41.60;102326.78;5186296;27;44032;-75
2024/04/14 04:42:15;;;;;;;;;1.00;1.00;;;;;25.37;42.41;102318.94;5186649;27;44011;-75
2024/04/14 04:44:41;;;;;;;;;2.00;1.00;;;;;25.43;41.64;102324.59;5186093;27;43975;-74
2024/04/14 04:47:06;;;;;;;;;1.67;1.67;;;;;25.32;41.22;102315.13;5185966;27;45642;-75
2024/04/14 04:49:31;;;;;;;;;3.33;1.33;;;;;25.43;41.90;102327.25;5186376;27;44048;-75
2024/04/14 04:51:56;;;;;;;;;1.33;1.33;;;;;25.37;41.40;102326.13;5186498;27;43951;-75
2024/04/14 04:54:22;;;;;;;;;0.33;0.33;;;;;25.43;41.56;102338.75;5186280;27;43833;-75
2024/04/14 04:56:47;;;;;;;;;2.00;2.00;;;;;25.44;41.80;102339.59;5186182;27;43906;-74
2024/04/14 04:59:12;;;;;;;;;1.67;1.67;;;;;25.44;42.14;102340.44;5185735;27;43911;-75
2024/04/14 05:01:38;;;;;;;;;1.67;1.67;;;;;25.43;41.20;102327.25;5184301;27;44000;-75
2024/04/14 05:04:04;;;;;;;;;2.00;1.33;;;;;25.43;41.94;102320.13;5186351;27;44011;-75
2024/04/14 05:06:29;;;;;;;;;1.00;1.00;;;;;25.43;42.35;102324.59;5185958;27;44043;-75
2024/04/14 05:08:55;;;;;;;;;3.00;1.33;;;;;25.43;41.22;102329.94;5185959;27;43904;-75
2024/04/14 05:11:20;;;;;;;;;1.00;1.00;;;;;25.42;41.19;102329.13;5186176;27;44540;-74
2024/04/14 05:13:45;;;;;;;;;2.67;1.67;;;;;25.42;41.56;102338.94;5185571;27;43964;-74
2024/04/14 05:16:12;;;;;;;;;2.33;1.33;;;;;25.38;42.07;102338.44;5185997;27;45009;-75
2024/04/14 05:18:37;;;;;;;;;2.00;2.00;;;;;25.35;42.07;102331.59;5185892;27;44252;-76
2024/04/14 05:21:03;;;;;;;;;3.00;2.00;;;;;25.41;41.43;102351.44;5186231;27;44000;-75
2024/04/14 05:23:28;;;;;;;;;1.00;1.00;;;;;25.40;41.37;102347.91;5185984;27;43915;-74
2024/04/14 05:25:53;;;;;;;;;2.00;2.00;;;;;25.41;42.01;102356.75;5185709;27;44652;-75
2024/04/14 05:28:20;;;;;;;;;1.67;1.67;;;;;25.37;41.97;102350.91;5185474;27;43946;-75
2024/04/14 05:30:48;;;;;;;;;0.33;0.33;;;;;25.33;41.62;102346.94;5185968;27;44082;-75
2024/04/14 05:33:13;;;;;;;;;2.00;2.00;;;;;25.40;41.64;102366.56;5185821;27;44067;-74
2024/04/14 05:35:39;;;;;;;;;1.00;1.00;;;;;25.39;42.31;102362.25;5183927;27;44874;-75
2024/04/14 05:38:04;;;;;;;;;1.33;1.33;;;;;25.40;41.76;102368.41;5185327;27;45064;-74
2024/04/14 05:40:29;;;;;;;;;1.33;1.33;;;;;25.31;42.51;102354.25;5185822;27;43866;-75
2024/04/14 05:42:54;;;;;;;;;2.00;2.00;;;;;25.38;42.03;102371.25;5185612;27;43923;-75
2024/04/14 05:45:24;;;;;;;;;0.00;0.00;;;;;25.30;42.37;102355.25;5185689;27;44893;-75
2024/04/14 05:47:49;;;;;;;;;1.00;1.00;;;;;25.35;41.21;102360.06;5185628;27;43849;-75
2024/04/14 05:50:15;;;;;;;;;0.67;0.67;;;;;25.38;41.21;102370.41;5184120;27;43956;-76
2024/04/14 05:52:40;;;;;;;;;0.33;0.33;;;;;25.34;41.18;102361.94;5185762;27;44078;-75
2024/04/14 05:55:06;;;;;;;;;1.00;1.00;;;;;25.38;42.33;102378.38;5185655;27;44076;-75
2024/04/14 05:57:31;;;;;;;;;1.00;1.00;;;;;25.33;41.81;102372.72;5185178;27;43969;-76
2024/04/14 05:59:56;;;;;;;;;1.00;1.00;;;;;25.38;41.78;102373.06;5185771;27;44013;-74
2024/04/14 06:02:22;;;;;;;;;2.00;1.67;;;;;25.38;41.47;102373.91;5183480;27;43856;-74
2024/04/14 06:04:49;;;;;;;;;1.33;1.33;;;;;25.35;42.10;102368.06;5184640;27;45643;-74
2024/04/14 06:07:15;;;;;;;;;2.00;1.00;;;;;25.38;41.68;102378.38;5184586;27;43956;-74
2024/04/14 06:09:40;;;;;;;;;1.00;1.00;;;;;25.38;41.23;102381.91;5184751;27;43781;-74
2024/04/14 06:12:06;;;;;;;;;1.00;1.00;;;;;25.42;41.98;102384.22;5184611;27;44232;-75
2024/04/14 06:14:31;;;;;;;;;1.00;0.67;;;;;25.32;41.96;102368.41;5184783;27;44896;-74
2024/04/14 06:16:56;;;;;;;;;2.00;1.00;;;;;25.36;41.89;102378.56;5184367;27;43971;-75
2024/04/14 06:19:22;;;;;;;;;2.33;0.33;;;;;25.38;41.62;102381.06;5184720;27;43995;-75
2024/04/14 06:21:47;;;;;;;;;1.00;1.00;;;;;25.41;42.27;102388.72;5184835;27;43928;-75
2024/04/14 06:24:12;;;;;;;;;1.00;1.00;;;;;25.41;41.86;102391.38;5184438;27;45759;-74
2024/04/14 06:26:38;;;;;;;;;4.00;1.00;;;;;25.42;41.59;102395.72;5184192;27;43917;-75
2024/04/14 06:29:03;;;;;;;;;2.33;2.33;;;;;25.41;41.99;102391.38;5184538;27;43911;-75
2024/04/14 06:31:28;;;;;;;;;1.00;1.00;;;;;25.34;41.69;102388.56;5184912;27;44001;-74
2024/04/14 06:33:54;;;;;;;;;2.33;2.33;;;;;25.41;41.81;102394.06;5185081;27;44635;-74
2024/04/14 06:36:19;;;;;;;;;2.00;2.00;;;;;25.41;41.97;102399.38;5184339;27;43991;-72
2024/04/14 06:38:44;;;;;;;;;2.00;2.00;;;;;25.44;41.87;102399.06;5184564;27;43888;-74
2024/04/14 06:41:11;;;;;;;;;1.00;1.00;;;;;25.43;42.27;102405.38;5184103;27;44061;-75
2024/04/14 06:43:36;;;;;;;;;2.00;2.00;;;;;25.46;42.22;102407.72;5184840;27;44110;-80
2024/04/14 06:46:02;;;;;;;;;1.33;1.33;;;;;25.21;41.55;102375.72;5183349;27;43888;-78
2024/04/14 06:48:27;;;;;;;;;1.67;1.67;;;;;25.38;42.03;102405.88;5185066;27;43823;-77
2024/04/14 06:50:53;;;;;;;;;1.67;1.00;;;;;25.44;41.97;102406.22;5184023;27;44348;-79
2024/04/14 06:53:20;;;;;;;;;1.00;1.00;;;;;25.36;41.54;102391.88;5183194;27;45710;-78
2024/04/14 06:55:47;;;;;;;;;2.33;2.33;;;;;25.36;42.27;102402.53;5184544;27;43987;-78
2024/04/14 06:58:13;;;;;;;;;1.00;1.00;;;;;25.46;41.87;102409.53;5185157;27;43972;-78
2024/04/14 07:00:39;;;;;;;;;1.00;1.00;;;;;25.36;41.28;102397.22;5183247;27;43991;-78
2024/04/14 07:03:04;;;;;;;;;2.33;2.00;;;;;25.28;42.28;102391.88;5184595;27;44030;-78
2024/04/14 07:05:29;;;;;;;;;2.33;1.00;;;;;25.44;41.37;102404.38;5184930;27;43975;-77
2024/04/14 07:07:55;;;;;;;;;2.33;1.00;;;;;25.37;42.33;102404.19;5184927;27;44105;-78
2024/04/14 07:10:20;;;;;;;;;2.67;1.67;;;;;25.39;42.04;102396.06;5184542;27;43985;-78
2024/04/14 07:12:45;;;;;;;;;2.67;1.00;;;;;25.39;41.35;102404.88;5184795;27;45688;-78
2024/04/14 07:15:10;;;;;;;;;2.00;1.00;;;;;25.35;41.85;102382.22;5184813;27;44043;-78
2024/04/14 07:17:36;;;;;;;;;0.67;0.67;;;;;25.40;41.39;102398.53;5184941;27;43880;-78
2024/04/14 07:20:03;;;;;;;;;1.00;1.00;;;;;25.28;41.23;102373.22;5185152;27;43778;-78
2024/04/14 07:22:28;;;;;;;;;1.00;1.00;;;;;25.43;41.39;102389.38;5184621;27;45720;-78
2024/04/14 07:24:53;;;;;;;;;2.33;1.00;;;;;25.43;41.67;102392.06;5184342;27;44039;-78
2024/04/14 07:27:19;;;;;;;;;2.33;2.00;;;;;25.43;41.46;102380.56;5184684;27;43852;-78
2024/04/14 07:29:44;;;;;;;;;1.00;0.67;;;;;25.36;40.96;102369.75;5182965;27;43896;-78
2024/04/14 07:32:10;;;;;;;;;2.33;2.00;;;;;25.35;42.29;102378.72;5184699;27;43991;-78
2024/04/14 07:34:35;;;;;;;;;1.33;1.33;;;;;25.17;41.89;102347.75;5184632;27;44272;-78
2024/04/14 07:37:02;;;;;;;;;1.33;1.33;;;;;25.45;41.72;102378.59;5184695;27;44164;-77
2024/04/14 07:39:28;;;;;;;;;1.67;1.67;;;;;25.36;42.35;102375.91;5184196;27;43982;-77
2024/04/14 07:41:53;;;;;;;;;3.00;0.67;;;;;25.35;41.67;102368.06;5184418;27;45059;-77
2024/04/14 07:44:18;;;;;;;;;3.00;3.00;;;;;25.46;41.14;102393.56;5184319;27;46777;-77
2024/04/14 07:46:44;;;;;;;;;1.00;1.00;;;;;25.44;42.03;102393.72;5184413;27;43865;-77
2024/04/14 07:49:09;;;;;;;;;2.00;2.00;;;;;25.44;41.15;102390.22;5184418;27;43902;-77
2024/04/14 07:51:34;;;;;;;;;2.00;2.00;;;;;25.37;41.88;102382.88;5184383;27;44028;-77
2024/04/14 07:54:00;;;;;;;;;1.00;1.00;;;;;25.44;41.99;102385.72;5184002;27;43955;-78
2024/04/14 07:56:25;;;;;;;;;2.00;1.00;;;;;25.35;41.32;102376.06;5184520;27;43980;-77
2024/04/14 07:58:50;;;;;;;;;0.67;0.67;;;;;25.43;41.22;102389.38;5184295;27;44031;-77
2024/04/14 08:01:16;;;;;;;;;1.67;1.00;;;;;25.39;42.00;102377.41;5183795;27;46743;-77
2024/04/14 08:03:41;;;;;;;;;0.67;0.33;;;;;25.45;41.53;102373.25;5184408;27;43940;-77
2024/04/14 08:06:07;;;;;;;;;0.00;0.00;;;;;25.36;41.62;102370.56;5184254;27;43877;-78
2024/04/14 08:08:32;;;;;;;;;2.00;1.00;;;;;25.34;41.47;102372.59;5183875;27;43832;-78
2024/04/14 08:10:57;;;;;;;;;1.00;1.00;;;;;25.45;41.40;102383.91;5184100;27;45822;-77
2024/04/14 08:13:23;;;;;;;;;1.33;1.33;;;;;25.31;42.23;102350.75;5183846;27;43801;-77
2024/04/14 08:15:48;;;;;;;;;2.00;2.00;;;;;25.44;42.14;102376.91;5184006;27;44075;-78
2024/04/14 08:18:16;;;;;;;;;3.00;2.00;;;;;25.45;41.85;102373.25;5184194;27;43829;-77
2024/04/14 08:20:41;;;;;;;;;1.00;1.00;;;;;25.24;41.43;102342.59;5183904;27;44759;-77
2024/04/14 08:23:06;;;;;;;;;3.00;1.00;;;;;25.45;42.09;102362.59;5183523;27;43991;-77
2024/04/14 08:25:37;;;;;;;;;3.00;2.00;;;;;25.38;41.84;102354.41;5184081;27;43947;-76
2024/04/14 08:28:03;;;;;;;;;1.00;1.00;;;;;25.42;41.97;102363.75;5183979;27;44003;-77
2024/04/14 08:30:28;;;;;;;;;0.67;0.67;;;;;25.42;41.51;102374.41;5183643;27;45679;-77
2024/04/14 08:32:54;;;;;;;;;0.00;0.00;;;;;25.42;41.33;102360.25;5183669;27;43913;-77
2024/04/14 08:35:19;;;;;;;;;2.00;2.00;;;;;25.45;41.10;102374.06;5183817;27;43860;-77
2024/04/14 08:37:44;;;;;;;;;1.67;0.33;;;;;25.33;42.38;102349.59;5183134;27;43928;-76
2024/04/14 08:40:10;;;;;;;;;1.33;0.33;;;;;25.18;41.15;102323.63;5183533;27;44769;-77
2024/04/14 08:42:36;;;;;;;;;1.00;1.00;;;;;25.38;41.29;102355.25;5183747;27;43742;-77
2024/04/14 08:45:02;;;;;;;;;4.00;1.33;;;;;25.46;42.35;102369.56;5183724;27;44036;-77
2024/04/14 08:47:28;;;;;;;;;2.33;2.00;;;;;25.46;41.26;102364.25;5183540;27;43907;-76
2024/04/14 08:49:55;;;;;;;;;1.00;1.00;;;;;25.42;41.63;102362.91;5183320;27;45780;-76
2024/04/14 08:52:23;;;;;;;;;1.00;1.00;;;;;25.46;42.42;102373.06;5182920;27;44027;-78
2024/04/14 08:54:49;;;;;;;;;1.00;1.00;;;;;25.46;42.15;102375.72;5183640;27;43861;-77
2024/04/14 08:57:14;;;;;;;;;1.33;1.33;;;;;25.10;41.36;102328.94;5183170;27;43969;-77
2024/04/14 08:59:41;;;;;;;;;1.00;1.00;;;;;25.36;42.44;102356.41;5183193;27;43971;-77
2024/04/14 09:02:10;;;;;;;;;1.00;1.00;;;;;25.40;42.43;102358.56;5183147;27;44031;-77
2024/04/14 09:04:35;;;;;;;;;0.33;0.33;;;;;25.43;41.43;102362.75;5183077;27;44020;-77
2024/04/14 09:07:01;;;;;;;;;1.00;1.00;;;;;25.39;42.53;102359.59;5182494;27;44007;-77
2024/04/14 09:09:26;;;;;;;;;1.33;1.33;;;;;25.34;42.00;102345.94;5182888;27;44029;-77
2024/04/14 09:11:52;;;;;;;;;1.67;1.67;;;;;25.47;41.80;102363.25;5181177;27;43986;-77
2024/04/14 09:14:18;;;;;;;;;0.67;0.67;;;;;25.46;41.29;102364.25;5185468;27;43964;-77
2024/04/14 09:16:44;;;;;;;;;3.00;1.00;;;;;25.26;41.35;102337.94;5185644;27;43933;-78
2024/04/14 09:19:09;;;;;;;;;1.67;1.33;;;;;25.44;41.85;102361.75;5185816;27;44075;-77
2024/04/14 09:21:35;;;;;;;;;1.00;1.00;;;;;25.45;42.00;102349.28;5185494;27;43879;-77
2024/04/14 09:24:00;;;;;;;;;1.00;1.00;;;;;25.48;42.59;102360.41;5185914;27;43666;-77
2024/04/14 09:26:26;;;;;;;;;1.00;1.00;;;;;25.45;41.22;102350.06;5186064;27;43852;-77
2024/04/14 09:29:04;;;;;;;;;1.00;1.00;;;;;25.45;42.36;102354.59;5185448;27;44020;-78
2024/04/14 09:31:30;;;;;;;;;1.00;1.00;;;;;25.49;42.11;102359.41;5185774;27;43994;-77
2024/04/14 09:33:56;;;;;;;;;1.33;1.33;;;;;25.43;41.42;102344.09;5185809;27;43916;-78
2024/04/14 09:36:25;;;;;;;;;1.00;1.00;;;;;25.49;41.44;102362.09;5183758;27;43896;-77
2024/04/14 09:38:54;;;;;;;;;1.33;1.33;;;;;25.43;42.55;102357.41;5185609;27;45008;-77
2024/04/14 09:41:23;;;;;;;;;1.00;1.00;;;;;25.49;41.59;102354.09;5185618;27;44000;-77
2024/04/14 09:43:52;;;;;;;;;1.00;1.00;;;;;25.39;41.28;102332.94;5185928;27;43774;-78
2024/04/14 09:46:18;;;;;;;;;2.00;2.00;;;;;25.50;42.57;102345.06;5185763;27;43871;-77
2024/04/14 09:48:44;;;;;;;;;2.00;2.00;;;;;25.43;41.68;102328.09;5185602;27;45051;-78
2024/04/14 09:51:10;;;;;;;;;1.00;1.00;;;;;25.43;42.29;102327.25;5185192;27;43934;-78
2024/04/14 09:53:36;;;;;;;;;1.00;1.00;;;;;25.36;42.00;102311.97;5185710;27;44041;-77
2024/04/14 09:56:05;;;;;;;;;1.33;0.00;;;;;25.53;41.43;102335.91;5185692;27;43958;-78
2024/04/14 09:58:30;;;;;;;;;1.00;1.00;;;;;25.44;41.11;102318.28;5185348;27;44087;-76
2024/04/14 10:00:58;;;;;;;;;2.00;0.00;;;;;25.16;41.09;102274.19;5185435;27;43951;-77
2024/04/14 10:03:26;;;;;;;;;1.00;1.00;;;;;25.55;42.32;102335.78;5185568;27;44031;-77
2024/04/14 10:05:54;;;;;;;;;2.00;2.00;;;;;25.46;42.43;102321.59;5185052;27;44358;-77
2024/04/14 10:08:20;;;;;;;;;1.67;1.00;;;;;25.49;41.52;102324.78;5185230;27;44287;-77
2024/04/14 10:10:45;;;;;;;;;1.67;1.67;;;;;25.58;41.30;102333.59;5183577;27;43905;-77
2024/04/14 10:13:12;;;;;;;;;1.00;1.00;;;;;25.57;41.34;102336.44;5185495;27;43974;-77
2024/04/14 10:15:38;;;;;;;;;0.00;0.00;;;;;25.46;41.86;102318.94;5185175;27;43951;-78
2024/04/14 10:18:17;;;;;;;;;1.00;1.00;;;;;25.45;41.11;102318.09;5185362;27;45712;-76
2024/04/14 10:20:44;;;;;;;;;1.00;1.00;;;;;25.46;41.35;102309.13;5185273;27;43991;-78
2024/04/14 10:23:15;;;;;;;;;2.00;1.00;;;;;25.58;42.14;102322.91;5185240;27;43852;-77
2024/04/14 10:25:48;;;;;;;;;1.00;1.00;;;;;25.54;42.13;102308.28;5184044;27;43988;-77
2024/04/14 10:28:20;;;;;;;;;1.00;1.00;;;;;25.58;42.23;102314.94;5184960;27;44413;-78
2024/04/14 10:30:48;;;;;;;;;1.67;1.67;;;;;25.48;41.45;102296.47;5185254;27;43876;-78
2024/04/14 10:33:24;;;;;;;;;1.00;1.00;;;;;25.45;41.62;102301.31;5184816;27;44024;-78
2024/04/14 10:36:08;;;;;;;;;3.00;1.00;;;;;25.57;42.28;102321.28;5185256;27;44004;-77
2024/04/14 10:38:34;;;;;;;;;1.00;1.00;;;;;25.56;42.29;102311.59;5184901;27;45127;-78
2024/04/14 10:41:00;;;;;;;;;2.00;2.00;;;;;25.55;42.44;102311.78;5185160;27;43996;-78
2024/04/14 10:43:26;;;;;;;;;1.00;1.00;;;;;25.60;42.01;102317.44;5185220;27;43825;-78
2024/04/14 10:45:52;;;;;;;;;1.00;1.00;;;;;25.62;41.62;102326.09;5185207;27;43892;-78
2024/04/14 10:48:17;;;;;;;;;1.00;1.00;;;;;25.58;41.64;102317.59;5184663;27;45060;-77
2024/04/14 10:50:43;;;;;;;;;2.00;2.00;;;;;25.62;42.09;102326.09;5184963;27;43889;-78
2024/04/14 10:53:09;;;;;;;;;1.00;1.00;;;;;25.51;41.25;102304.13;5185057;27;43925;-77
2024/04/14 10:55:34;;;;;;;;;1.33;1.33;;;;;25.64;42.32;102321.41;5185088;27;43924;-77
2024/04/14 10:58:00;;;;;;;;;1.00;1.00;;;;;25.65;42.41;102319.59;5184836;27;45799;-77
2024/04/14 11:00:26;;;;;;;;;1.00;1.00;;;;;25.63;41.91;102312.59;5185002;27;44063;-78
2024/04/14 11:02:51;;;;;;;;;1.00;1.00;;;;;25.59;41.93;102294.44;5184519;27;43868;-77
2024/04/14 11:05:19;;;;;;;;;2.00;2.00;;;;;25.67;41.22;102291.78;5184855;27;44060;-77
2024/04/14 11:07:45;;;;;;;;;3.00;1.00;;;;;25.67;42.40;102288.28;5184647;27;45892;-77
2024/04/14 11:10:12;;;;;;;;;1.67;1.00;;;;;25.62;42.18;102270.13;5184864;27;43953;-78
2024/04/14 11:12:39;;;;;;;;;2.00;2.00;;;;;25.67;42.39;102281.09;5185048;27;43904;-78
2024/04/14 11:15:06;;;;;;;;;3.00;2.00;;;;;25.52;42.06;102257.84;5184747;27;43984;-77
2024/04/14 11:17:32;;;;;;;;;1.67;1.67;;;;;25.50;41.96;102254.47;5184105;27;45217;-77